createdAt,value
2023-03-02T00:04:57.811Z,8.38
2023-03-02T00:10:01.189Z,6.68
2023-03-02T00:15:07.542Z,9.35
2023-03-02T00:20:12.207Z,11.57
2023-03-02T00:25:16.872Z,7.07
2023-03-02T00:30:21.860Z,10.63
2023-03-02T00:35:28.680Z,14.77
2023-03-02T00:40:32.027Z,7.57
2023-03-02T00:45:36.948Z,10.60
2023-03-02T00:50:41.276Z,11.52
2023-03-02T00:55:53.549Z,13.98
2023-03-02T01:01:04.557Z,10.88
2023-03-02T01:06:15.224Z,12.43
2023-03-02T01:11:21.188Z,10.32
2023-03-02T01:16:25.835Z,9.30
2023-03-02T01:21:29.496Z,4.35
2023-03-02T01:26:33.330Z,11.20
2023-03-02T01:31:38.782Z,8.30
2023-03-02T01:36:45.511Z,10.70
2023-03-02T01:41:50.503Z,8.93
2023-03-02T01:46:55.090Z,10.13
2023-03-02T01:51:58.935Z,9.25
2023-03-02T01:57:04.761Z,7.43
2023-03-02T02:02:11.698Z,8.93
2023-03-02T02:07:15.133Z,4.65
2023-03-02T02:12:21.222Z,6.78
2023-03-02T02:17:26.305Z,6.82
2023-03-02T02:22:42.245Z,7.75
2023-03-02T02:27:47.399Z,11.93
2023-03-02T02:38:02.193Z,8.80
2023-03-02T02:43:09.648Z,8.55
2023-03-02T02:48:16.899Z,5.40
2023-03-02T02:53:24.621Z,5.80
2023-03-02T02:58:34.280Z,7.95
2023-03-02T03:03:39.515Z,11.98
2023-03-02T03:08:56.173Z,8.93
2023-03-02T03:14:11.793Z,7.20
2023-03-02T03:19:20.227Z,12.05
2023-03-02T03:24:24.947Z,7.85
2023-03-02T03:29:32.174Z,11.00
2023-03-02T03:34:40.900Z,8.52
2023-03-02T03:39:50.676Z,8.80
2023-03-02T03:44:56.205Z,7.40
2023-03-02T03:50:00.195Z,5.57
2023-03-02T03:55:05.607Z,8.23
2023-03-02T04:00:19.959Z,11.43
2023-03-02T04:05:31.509Z,9.25
2023-03-02T04:10:36.693Z,8.60
2023-03-02T04:15:43.333Z,8.73
2023-03-02T04:20:49.400Z,9.63
2023-03-02T04:25:53.629Z,7.75
2023-03-02T04:31:00.319Z,9.07
2023-03-02T04:36:04.073Z,7.72
2023-03-02T04:41:07.781Z,8.73
2023-03-02T04:46:15.495Z,15.88
2023-03-02T04:51:25.184Z,7.43
2023-03-02T04:56:29.011Z,7.60
2023-03-02T05:01:34.585Z,7.13
2023-03-02T05:06:38.662Z,7.72
2023-03-02T05:11:42.043Z,9.10
2023-03-02T05:16:46.594Z,12.40
2023-03-02T05:21:49.906Z,19.27
2023-03-02T05:26:53.258Z,8.02
2023-03-02T05:31:58.426Z,12.07
2023-03-02T05:37:01.692Z,8.38
2023-03-02T05:42:06.740Z,17.33
2023-03-02T05:47:11.946Z,16.05
2023-03-02T05:52:15.300Z,10.23
2023-03-02T05:57:18.998Z,9.77
2023-03-02T06:02:23.671Z,13.75
2023-03-02T06:07:27.614Z,16.75
2023-03-02T06:12:31.396Z,11.32
2023-03-02T06:17:36.452Z,17.90
2023-03-02T06:22:42.134Z,17.80
2023-03-02T06:27:46.077Z,23.80
2023-03-02T06:32:51.236Z,18.30
2023-03-02T06:37:54.771Z,30.95
2023-03-02T06:43:01.303Z,24.35
2023-03-02T06:48:08.055Z,14.63
2023-03-02T06:53:11.728Z,22.05
2023-03-02T06:58:15.256Z,23.50
2023-03-02T07:03:20.353Z,21.15
2023-03-02T07:08:24.144Z,13.60
2023-03-02T07:13:27.509Z,20.58
2023-03-02T07:18:32.370Z,21.73
2023-03-02T07:23:35.885Z,20.33
2023-03-02T07:28:41.804Z,19.75
2023-03-02T07:33:46.430Z,21.42
2023-03-02T07:38:49.735Z,21.50
2023-03-02T07:43:53.065Z,17.83
2023-03-02T07:48:59.182Z,23.52
2023-03-02T07:54:04.816Z,26.90
2023-03-02T07:59:08.095Z,19.45
2023-03-02T08:04:13.141Z,21.75
2023-03-02T08:09:17.419Z,26.52
2023-03-02T08:14:20.837Z,22.30
2023-03-02T08:19:26.459Z,35.58
2023-03-02T08:24:29.860Z,23.70
2023-03-02T08:29:33.204Z,26.98
2023-03-02T08:34:37.932Z,23.20
2023-03-02T08:39:41.336Z,16.33
2023-03-02T08:44:44.825Z,20.33
2023-03-02T08:49:51.285Z,31.83
2023-03-02T08:54:54.619Z,28.35
2023-03-02T08:59:58.701Z,24.33
2023-03-02T09:05:03.468Z,25.23
2023-03-02T09:10:07.306Z,25.35
2023-03-02T09:15:11.099Z,26.13
2023-03-02T09:20:16.766Z,27.02
2023-03-02T09:30:24.090Z,25.02
2023-03-02T09:35:29.454Z,21.58
2023-03-02T09:40:38.455Z,29.15
2023-03-02T09:46:01.026Z,22.95
2023-03-02T09:51:30.668Z,29.67
2023-03-02T09:56:37.890Z,30.95
2023-03-02T10:01:47.360Z,26.00
2023-03-02T10:06:57.826Z,26.35
2023-03-02T10:12:24.701Z,27.23
2023-03-02T10:17:43.051Z,20.77
2023-03-02T10:22:52.812Z,18.73
2023-03-02T10:28:01.683Z,20.80
2023-03-02T10:33:12.253Z,23.08
2023-03-02T10:38:19.568Z,22.95
2023-03-02T10:43:30.686Z,25.65
2023-03-02T10:48:49.322Z,22.77
2023-03-02T10:54:11.414Z,21.13
2023-03-02T10:59:43.516Z,20.92
2023-03-02T11:04:46.940Z,16.55
2023-03-02T11:10:03.694Z,19.27
2023-03-02T11:15:25.944Z,18.63
2023-03-02T11:20:33.075Z,20.13
2023-03-02T11:25:42.766Z,20.35
2023-03-02T11:30:49.051Z,20.10
2023-03-02T11:35:55.944Z,18.05
2023-03-02T11:41:05.620Z,16.95
2023-03-02T11:46:22.291Z,15.93
2023-03-02T11:51:29.342Z,17.35
2023-03-02T11:56:36.679Z,18.13
2023-03-02T12:01:40.621Z,16.75
2023-03-02T12:06:45.515Z,17.92
2023-03-02T12:11:55.679Z,15.05
2023-03-02T12:17:19.729Z,15.93
2023-03-02T12:22:28.698Z,19.40
2023-03-02T12:27:39.961Z,18.30
2023-03-02T12:32:48.353Z,15.82
2023-03-02T12:37:57.299Z,14.88
2023-03-02T12:43:19.447Z,15.43
2023-03-02T12:48:28.021Z,11.60
2023-03-02T12:53:31.896Z,12.98
2023-03-02T12:58:36.964Z,13.45
2023-03-02T13:03:47.601Z,11.90
2023-03-02T13:08:54.793Z,12.65
2023-03-02T13:14:00.773Z,15.63
2023-03-02T13:19:14.840Z,14.85
2023-03-02T13:24:30.524Z,14.17
2023-03-02T13:29:35.482Z,16.00
2023-03-02T13:34:49.829Z,16.75
2023-03-02T13:39:57.858Z,17.57
2023-03-02T13:45:21.033Z,15.30
2023-03-02T13:50:27.707Z,16.85
2023-03-02T13:55:31.662Z,17.38
2023-03-02T14:00:36.487Z,17.35
2023-03-02T14:05:40.031Z,17.67
2023-03-02T14:10:43.696Z,17.23
2023-03-02T14:15:51.414Z,18.80
2023-03-02T14:20:55.004Z,20.15
2023-03-02T14:25:58.456Z,18.40
2023-03-02T14:31:03.235Z,12.60
2023-03-02T14:36:11.646Z,15.43
2023-03-02T14:41:20.314Z,15.40
2023-03-02T14:46:25.087Z,19.13
2023-03-02T14:51:31.724Z,20.25
2023-03-02T14:56:35.602Z,18.83
2023-03-02T15:01:41.845Z,17.63
2023-03-02T15:06:46.338Z,18.67
2023-03-02T15:11:50.812Z,15.25
2023-03-02T15:16:55.839Z,13.70
2023-03-02T15:22:00.625Z,16.23
2023-03-02T15:27:04.428Z,12.18
2023-03-02T15:32:09.730Z,10.45
2023-03-02T15:37:13.230Z,10.88
2023-03-02T15:42:17.228Z,12.95
2023-03-02T15:47:22.160Z,12.80
2023-03-02T15:52:25.649Z,12.13
2023-03-02T15:57:29.018Z,12.75
2023-03-02T16:02:34.374Z,11.98
2023-03-02T16:07:37.796Z,8.10
2023-03-02T16:12:41.774Z,8.57
2023-03-02T16:17:46.494Z,11.88
2023-03-02T16:22:50.168Z,12.73
2023-03-02T16:27:53.856Z,13.55
2023-03-02T16:32:59.124Z,9.30
2023-03-02T16:38:03.254Z,10.85
2023-03-02T16:43:08.849Z,10.83
2023-03-02T16:48:13.432Z,11.65
2023-03-02T16:53:19.392Z,11.52
2023-03-02T16:58:22.658Z,11.02
2023-03-02T17:03:27.309Z,12.20
2023-03-02T17:08:30.782Z,13.60
2023-03-02T17:13:34.146Z,12.13
2023-03-02T17:18:38.793Z,10.90
2023-03-02T17:23:43.424Z,13.65
2023-03-02T17:28:46.650Z,10.60
2023-03-02T17:33:51.204Z,11.90
2023-03-02T17:38:54.574Z,9.20
2023-03-02T17:43:57.866Z,10.93
2023-03-02T17:49:02.477Z,15.90
2023-03-02T17:54:06.188Z,12.25
2023-03-02T17:59:10.811Z,11.25
2023-03-02T18:04:15.960Z,10.27
2023-03-02T18:14:24.030Z,12.15
2023-03-02T18:19:28.607Z,13.82
2023-03-02T18:24:32.037Z,10.18
2023-03-02T18:29:35.877Z,11.48
2023-03-02T18:34:40.996Z,15.00
2023-03-02T18:39:45.095Z,8.55
2023-03-02T18:44:48.665Z,13.27
2023-03-02T18:49:53.419Z,11.15
2023-03-02T18:54:57.859Z,13.95
2023-03-02T19:00:01.252Z,9.95
2023-03-02T19:05:07.094Z,13.95
2023-03-02T19:10:11.669Z,11.40
2023-03-02T19:15:16.057Z,21.95
2023-03-02T19:20:21.310Z,15.97
2023-03-02T19:25:25.014Z,14.55
2023-03-02T19:30:28.945Z,10.52
2023-03-02T19:35:34.477Z,12.23
2023-03-02T19:40:38.264Z,12.48
2023-03-02T19:45:41.508Z,13.15
2023-03-02T19:50:46.185Z,12.00
2023-03-02T19:55:51.462Z,12.93
2023-03-02T20:00:55.545Z,14.35
2023-03-02T20:06:00.363Z,12.45
2023-03-02T20:11:04.532Z,12.80
2023-03-02T20:16:09.104Z,11.13
2023-03-02T20:21:13.930Z,11.02
2023-03-02T20:26:24.619Z,8.70
2023-03-02T20:31:28.230Z,13.52
2023-03-02T20:36:35.566Z,13.50
2023-03-02T20:41:39.612Z,13.40
2023-03-02T20:46:47.909Z,15.45
2023-03-02T20:51:54.843Z,12.77
2023-03-02T20:56:59.346Z,25.55
2023-03-02T21:02:02.705Z,17.53
2023-03-02T21:07:07.888Z,24.52
2023-03-02T21:12:11.875Z,16.88
2023-03-02T21:17:15.624Z,18.43
2023-03-02T21:22:20.771Z,12.07
2023-03-02T21:27:24.003Z,22.45
2023-03-02T21:32:27.294Z,17.05
2023-03-02T21:37:32.626Z,18.50
2023-03-02T21:42:36.378Z,16.15
2023-03-02T21:47:41.303Z,16.30
2023-03-02T21:52:46.019Z,19.70
2023-03-02T21:57:49.250Z,20.95
2023-03-02T22:02:53.199Z,25.83
2023-03-02T22:07:58.530Z,17.88
2023-03-02T22:13:15.363Z,19.08
2023-03-02T22:18:21.372Z,19.45
2023-03-02T22:23:27.756Z,16.88
2023-03-02T22:28:31.217Z,18.20
2023-03-02T22:33:36.655Z,18.20
2023-03-02T22:38:41.263Z,20.80
2023-03-02T22:43:46.316Z,21.67
2023-03-02T22:48:51.001Z,20.83
2023-03-02T22:53:58.300Z,24.80
2023-03-02T22:59:09.150Z,21.20
2023-03-02T23:04:17.481Z,19.85
2023-03-02T23:09:24.691Z,24.73
2023-03-02T23:14:29.934Z,17.13
2023-03-02T23:19:33.140Z,19.40
2023-03-02T23:24:38.092Z,20.52
2023-03-02T23:29:41.655Z,15.35
2023-03-02T23:34:45.535Z,20.25
2023-03-02T23:39:50.181Z,21.75
2023-03-02T23:44:55.367Z,15.88
2023-03-02T23:49:58.690Z,18.90
2023-03-02T23:55:03.393Z,17.88
